sensor_id;sensor_type;location;lat;lon;timestamp;pressure;altitude;pressure_sealevel;temperature;humidity
80938;BME280;70395;51.382;7.074;2023-11-21T00:01:37;99865.13;;;9.84;66.69
80938;BME280;70395;51.382;7.074;2023-11-21T00:04:03;99863.28;;;9.84;66.83
80938;BME280;70395;51.382;7.074;2023-11-21T00:06:29;99863.97;;;9.86;66.57
80938;BME280;70395;51.382;7.074;2023-11-21T00:08:56;99863.00;;;9.87;66.42
80938;BME280;70395;51.382;7.074;2023-11-21T00:11:22;99870.19;;;9.87;66.84
80938;BME280;70395;51.382;7.074;2023-11-21T00:13:48;99871.88;;;9.88;66.79
80938;BME280;70395;51.382;7.074;2023-11-21T00:16:13;99870.84;;;9.89;66.96
80938;BME280;70395;51.382;7.074;2023-11-21T00:18:39;99869.19;;;9.88;66.88
80938;BME280;70395;51.382;7.074;2023-11-21T00:21:06;99870.84;;;9.89;66.93
80938;BME280;70395;51.382;7.074;2023-11-21T00:23:31;99872.84;;;9.87;67.00
80938;BME280;70395;51.382;7.074;2023-11-21T00:25:57;99870.34;;;9.85;67.01
80938;BME280;70395;51.382;7.074;2023-11-21T00:28:23;99872.16;;;9.85;67.12
80938;BME280;70395;51.382;7.074;2023-11-21T00:30:50;99883.56;;;9.87;67.25
80938;BME280;70395;51.382;7.074;2023-11-21T00:33:16;99881.56;;;9.89;67.29
80938;BME280;70395;51.382;7.074;2023-11-21T00:35:42;99882.94;;;9.93;67.10
80938;BME280;70395;51.382;7.074;2023-11-21T00:38:07;99880.66;;;9.98;67.11
80938;BME280;70395;51.382;7.074;2023-11-21T00:40:34;99884.72;;;10.02;67.13
80938;BME280;70395;51.382;7.074;2023-11-21T00:43:00;99885.41;;;10.05;67.08
80938;BME280;70395;51.382;7.074;2023-11-21T00:45:26;99883.44;;;10.07;66.81
80938;BME280;70395;51.382;7.074;2023-11-21T00:47:52;99876.25;;;10.07;66.90
80938;BME280;70395;51.382;7.074;2023-11-21T00:50:18;99879.59;;;10.09;67.09
80938;BME280;70395;51.382;7.074;2023-11-21T00:52:44;99872.25;;;10.11;67.03
80938;BME280;70395;51.382;7.074;2023-11-21T00:55:11;99877.59;;;10.11;67.02
80938;BME280;70395;51.382;7.074;2023-11-21T00:57:37;99876.75;;;10.11;67.14
80938;BME280;70395;51.382;7.074;2023-11-21T01:00:04;99886.63;;;10.10;67.21
80938;BME280;70395;51.382;7.074;2023-11-21T01:02:39;99884.28;;;10.07;66.98
80938;BME280;70395;51.382;7.074;2023-11-21T01:05:05;99880.19;;;10.03;67.14
80938;BME280;70395;51.382;7.074;2023-11-21T01:07:33;99885.03;;;9.99;67.29
80938;BME280;70395;51.382;7.074;2023-11-21T01:09:59;99890.97;;;9.93;67.18
80938;BME280;70395;51.382;7.074;2023-11-21T01:12:24;99887.22;;;9.86;67.09
80938;BME280;70395;51.382;7.074;2023-11-21T01:14:51;99895.03;;;9.79;67.47
80938;BME280;70395;51.382;7.074;2023-11-21T01:17:16;99893.94;;;9.72;67.37
80938;BME280;70395;51.382;7.074;2023-11-21T01:19:44;99888.34;;;9.65;67.57
80938;BME280;70395;51.382;7.074;2023-11-21T01:22:09;99898.50;;;9.61;67.69
80938;BME280;70395;51.382;7.074;2023-11-21T01:24:37;99901.50;;;9.58;67.69
80938;BME280;70395;51.382;7.074;2023-11-21T01:27:03;99898.13;;;9.56;67.73
80938;BME280;70395;51.382;7.074;2023-11-21T01:29:30;99904.31;;;9.56;67.78
80938;BME280;70395;51.382;7.074;2023-11-21T01:31:55;99905.00;;;9.58;67.68
80938;BME280;70395;51.382;7.074;2023-11-21T01:34:23;99907.53;;;9.60;67.86
80938;BME280;70395;51.382;7.074;2023-11-21T01:36:49;99906.25;;;9.64;67.45
80938;BME280;70395;51.382;7.074;2023-11-21T01:39:15;99906.81;;;9.68;67.58
80938;BME280;70395;51.382;7.074;2023-11-21T01:41:42;99904.66;;;9.72;67.44
80938;BME280;70395;51.382;7.074;2023-11-21T01:44:09;99908.19;;;9.72;67.31
80938;BME280;70395;51.382;7.074;2023-11-21T01:46:36;99906.66;;;9.69;67.47
80938;BME280;70395;51.382;7.074;2023-11-21T01:49:03;99900.88;;;9.64;67.44
80938;BME280;70395;51.382;7.074;2023-11-21T01:51:29;99916.09;;;9.64;67.49
80938;BME280;70395;51.382;7.074;2023-11-21T01:53:55;99912.75;;;9.62;67.84
80938;BME280;70395;51.382;7.074;2023-11-21T01:56:21;99904.72;;;9.62;67.89
80938;BME280;70395;51.382;7.074;2023-11-21T01:58:47;99912.44;;;9.65;67.73
80938;BME280;70395;51.382;7.074;2023-11-21T02:01:13;99910.47;;;9.67;67.70
80938;BME280;70395;51.382;7.074;2023-11-21T02:03:39;99910.00;;;9.72;67.45
80938;BME280;70395;51.382;7.074;2023-11-21T02:06:05;99913.38;;;9.74;67.40
80938;BME280;70395;51.382;7.074;2023-11-21T02:08:31;99922.25;;;9.74;67.69
80938;BME280;70395;51.382;7.074;2023-11-21T02:10:57;99924.94;;;9.74;67.50
80938;BME280;70395;51.382;7.074;2023-11-21T02:13:23;99925.63;;;9.76;67.44
80938;BME280;70395;51.382;7.074;2023-11-21T02:15:49;99924.78;;;9.76;67.38
80938;BME280;70395;51.382;7.074;2023-11-21T02:18:18;99926.47;;;9.77;67.31
80938;BME280;70395;51.382;7.074;2023-11-21T02:20:43;99929.00;;;9.78;67.29
80938;BME280;70395;51.382;7.074;2023-11-21T02:23:09;99933.19;;;9.81;67.38
80938;BME280;70395;51.382;7.074;2023-11-21T02:25:35;99939.25;;;9.83;67.65
80938;BME280;70395;51.382;7.074;2023-11-21T02:28:03;99938.09;;;9.86;67.49
80938;BME280;70395;51.382;7.074;2023-11-21T02:30:30;99936.28;;;9.86;67.38
80938;BME280;70395;51.382;7.074;2023-11-21T02:33:03;99945.00;;;9.88;67.52
80938;BME280;70395;51.382;7.074;2023-11-21T02:35:28;99940.50;;;9.89;67.48
80938;BME280;70395;51.382;7.074;2023-11-21T02:37:56;99940.34;;;9.90;67.46
80938;BME280;70395;51.382;7.074;2023-11-21T02:40:22;99933.47;;;9.88;67.69
80938;BME280;70395;51.382;7.074;2023-11-21T02:42:50;99939.66;;;9.88;67.58
80938;BME280;70395;51.382;7.074;2023-11-21T02:45:18;99936.84;;;9.90;67.48
80938;BME280;70395;51.382;7.074;2023-11-21T02:47:44;99943.00;;;9.90;67.33
80938;BME280;70395;51.382;7.074;2023-11-21T02:50:11;99954.44;;;9.93;67.67
80938;BME280;70395;51.382;7.074;2023-11-21T02:52:37;99953.13;;;9.97;67.29
80938;BME280;70395;51.382;7.074;2023-11-21T02:55:03;99953.81;;;9.99;67.35
80938;BME280;70395;51.382;7.074;2023-11-21T02:57:29;99954.50;;;10.01;67.32
80938;BME280;70395;51.382;7.074;2023-11-21T02:59:56;99956.22;;;10.02;67.28
80938;BME280;70395;51.382;7.074;2023-11-21T03:02:22;99957.06;;;10.02;67.26
80938;BME280;70395;51.382;7.074;2023-11-21T03:04:48;99962.25;;;10.04;67.29
80938;BME280;70395;51.382;7.074;2023-11-21T03:07:15;99963.22;;;10.03;67.27
80938;BME280;70395;51.382;7.074;2023-11-21T03:09:41;99970.13;;;10.06;67.13
80938;BME280;70395;51.382;7.074;2023-11-21T03:12:07;99978.16;;;10.06;67.16
80938;BME280;70395;51.382;7.074;2023-11-21T03:14:34;99966.47;;;10.07;67.16
80938;BME280;70395;51.382;7.074;2023-11-21T03:17:00;99975.19;;;10.09;67.02
80938;BME280;70395;51.382;7.074;2023-11-21T03:19:26;99971.53;;;10.10;67.12
80938;BME280;70395;51.382;7.074;2023-11-21T03:21:51;99966.19;;;10.10;67.22
80938;BME280;70395;51.382;7.074;2023-11-21T03:24:19;99968.00;;;10.09;67.24
80938;BME280;70395;51.382;7.074;2023-11-21T03:26:46;99969.00;;;10.08;67.23
80938;BME280;70395;51.382;7.074;2023-11-21T03:29:12;99972.81;;;10.06;67.17
80938;BME280;70395;51.382;7.074;2023-11-21T03:31:39;99977.63;;;10.02;67.46
80938;BME280;70395;51.382;7.074;2023-11-21T03:34:05;99979.06;;;9.96;67.32
80938;BME280;70395;51.382;7.074;2023-11-21T03:36:31;99979.53;;;9.91;67.50
80938;BME280;70395;51.382;7.074;2023-11-21T03:38:57;99980.94;;;9.86;67.72
80938;BME280;70395;51.382;7.074;2023-11-21T03:41:23;99993.13;;;9.80;67.89
80938;BME280;70395;51.382;7.074;2023-11-21T03:43:50;99997.78;;;9.78;67.83
80938;BME280;70395;51.382;7.074;2023-11-21T03:46:16;99992.44;;;9.78;68.03
80938;BME280;70395;51.382;7.074;2023-11-21T03:48:41;99997.47;;;9.81;67.92
80938;BME280;70395;51.382;7.074;2023-11-21T03:51:07;100008.88;;;9.83;68.09
80938;BME280;70395;51.382;7.074;2023-11-21T03:53:33;100005.06;;;9.86;67.66
80938;BME280;70395;51.382;7.074;2023-11-21T03:56:02;100013.81;;;9.88;67.80
80938;BME280;70395;51.382;7.074;2023-11-21T03:58:29;100015.31;;;9.90;67.62
80938;BME280;70395;51.382;7.074;2023-11-21T04:00:55;100017.59;;;9.95;67.43
80938;BME280;70395;51.382;7.074;2023-11-21T04:03:20;100024.59;;;9.96;67.44
80938;BME280;70395;51.382;7.074;2023-11-21T04:05:46;100023.47;;;9.99;67.45
80938;BME280;70395;51.382;7.074;2023-11-21T04:08:12;100020.63;;;10.00;67.45
80938;BME280;70395;51.382;7.074;2023-11-21T04:10:38;100026.72;;;10.02;67.44
80938;BME280;70395;51.382;7.074;2023-11-21T04:13:05;100028.53;;;10.02;67.42
80938;BME280;70395;51.382;7.074;2023-11-21T04:15:32;100011.78;;;10.00;67.28
80938;BME280;70395;51.382;7.074;2023-11-21T04:17:58;100019.25;;;9.96;67.56
80938;BME280;70395;51.382;7.074;2023-11-21T04:20:24;100019.69;;;9.91;67.59
80938;BME280;70395;51.382;7.074;2023-11-21T04:22:51;100022.13;;;9.85;67.60
80938;BME280;70395;51.382;7.074;2023-11-21T04:25:17;100017.34;;;9.78;67.81
80938;BME280;70395;51.382;7.074;2023-11-21T04:27:45;100020.78;;;9.71;67.98
80938;BME280;70395;51.382;7.074;2023-11-21T04:30:14;100020.84;;;9.61;68.28
80938;BME280;70395;51.382;7.074;2023-11-21T04:32:40;100022.41;;;9.53;68.25
80938;BME280;70395;51.382;7.074;2023-11-21T04:35:08;100021.00;;;9.49;68.70
80938;BME280;70395;51.382;7.074;2023-11-21T04:37:37;100027.63;;;9.45;68.59
80938;BME280;70395;51.382;7.074;2023-11-21T04:40:03;100025.94;;;9.44;68.57
80938;BME280;70395;51.382;7.074;2023-11-21T04:42:36;100026.78;;;9.44;68.67
80938;BME280;70395;51.382;7.074;2023-11-21T04:45:06;100028.31;;;9.47;68.54
80938;BME280;70395;51.382;7.074;2023-11-21T04:47:36;100035.22;;;9.50;68.31
80938;BME280;70395;51.382;7.074;2023-11-21T04:50:04;100029.72;;;9.51;68.50
80938;BME280;70395;51.382;7.074;2023-11-21T04:52:30;100035.06;;;9.51;68.54
80938;BME280;70395;51.382;7.074;2023-11-21T04:54:55;100039.59;;;9.51;68.59
80938;BME280;70395;51.382;7.074;2023-11-21T04:57:24;100047.91;;;9.48;68.53
80938;BME280;70395;51.382;7.074;2023-11-21T04:59:49;100048.19;;;9.44;68.58
80938;BME280;70395;51.382;7.074;2023-11-21T05:02:16;100043.00;;;9.43;68.53
80938;BME280;70395;51.382;7.074;2023-11-21T05:04:42;100050.00;;;9.44;68.55
80938;BME280;70395;51.382;7.074;2023-11-21T05:07:08;100052.56;;;9.45;68.67
80938;BME280;70395;51.382;7.074;2023-11-21T05:09:34;100052.28;;;9.49;68.65
80938;BME280;70395;51.382;7.074;2023-11-21T05:12:01;100055.50;;;9.52;68.41
80938;BME280;70395;51.382;7.074;2023-11-21T05:14:27;100053.53;;;9.54;68.51
80938;BME280;70395;51.382;7.074;2023-11-21T05:16:53;100061.56;;;9.54;68.42
80938;BME280;70395;51.382;7.074;2023-11-21T05:19:19;100058.19;;;9.52;68.64
80938;BME280;70395;51.382;7.074;2023-11-21T05:21:45;100059.16;;;9.51;68.75
80938;BME280;70395;51.382;7.074;2023-11-21T05:24:11;100062.13;;;9.48;68.61
80938;BME280;70395;51.382;7.074;2023-11-21T05:26:37;100057.22;;;9.43;68.92
80938;BME280;70395;51.382;7.074;2023-11-21T05:29:04;100069.06;;;9.41;68.93
80938;BME280;70395;51.382;7.074;2023-11-21T05:31:30;100079.06;;;9.39;69.11
80938;BME280;70395;51.382;7.074;2023-11-21T05:33:56;100077.09;;;9.41;69.04
80938;BME280;70395;51.382;7.074;2023-11-21T05:36:22;100081.16;;;9.45;68.93
80938;BME280;70395;51.382;7.074;2023-11-21T05:38:48;100082.56;;;9.49;68.82
80938;BME280;70395;51.382;7.074;2023-11-21T05:41:15;100088.59;;;9.51;68.75
80938;BME280;70395;51.382;7.074;2023-11-21T05:43:40;100101.84;;;9.53;68.81
80938;BME280;70395;51.382;7.074;2023-11-21T05:46:06;100090.16;;;9.54;68.93
80938;BME280;70395;51.382;7.074;2023-11-21T05:48:33;100091.00;;;9.54;68.77
80938;BME280;70395;51.382;7.074;2023-11-21T05:50:59;100092.97;;;9.52;68.73
80938;BME280;70395;51.382;7.074;2023-11-21T05:53:25;100097.47;;;9.52;68.63
80938;BME280;70395;51.382;7.074;2023-11-21T05:55:50;100103.69;;;9.52;68.76
80938;BME280;70395;51.382;7.074;2023-11-21T05:58:16;100109.88;;;9.53;68.75
80938;BME280;70395;51.382;7.074;2023-11-21T06:00:42;100120.44;;;9.54;68.72
80938;BME280;70395;51.382;7.074;2023-11-21T06:03:08;100120.31;;;9.56;68.78
80938;BME280;70395;51.382;7.074;2023-11-21T06:05:34;100129.03;;;9.58;68.77
80938;BME280;70395;51.382;7.074;2023-11-21T06:08:00;100124.66;;;9.57;68.81
80938;BME280;70395;51.382;7.074;2023-11-21T06:10:27;100126.66;;;9.55;68.79
80938;BME280;70395;51.382;7.074;2023-11-21T06:12:54;100137.78;;;9.50;68.95
80938;BME280;70395;51.382;7.074;2023-11-21T06:15:20;100139.34;;;9.43;68.91
80938;BME280;70395;51.382;7.074;2023-11-21T06:17:48;100137.78;;;9.40;69.44
80938;BME280;70395;51.382;7.074;2023-11-21T06:20:18;100143.31;;;9.39;69.12
80938;BME280;70395;51.382;7.074;2023-11-21T06:22:47;100148.66;;;9.39;69.34
80938;BME280;70395;51.382;7.074;2023-11-21T06:25:14;100150.19;;;9.41;69.12
80938;BME280;70395;51.382;7.074;2023-11-21T06:27:43;100156.94;;;9.45;69.03
80938;BME280;70395;51.382;7.074;2023-11-21T06:30:14;100162.03;;;9.49;68.69
80938;BME280;70395;51.382;7.074;2023-11-21T06:32:42;100166.22;;;9.51;68.83
80938;BME280;70395;51.382;7.074;2023-11-21T06:35:11;100174.25;;;9.51;68.67
80938;BME280;70395;51.382;7.074;2023-11-21T06:37:37;100171.44;;;9.53;68.92
80938;BME280;70395;51.382;7.074;2023-11-21T06:40:04;100171.44;;;9.53;68.82
80938;BME280;70395;51.382;7.074;2023-11-21T06:42:31;100181.03;;;9.55;68.73
80938;BME280;70395;51.382;7.074;2023-11-21T06:44:57;100172.56;;;9.60;68.73
80938;BME280;70395;51.382;7.074;2023-11-21T06:47:24;100181.16;;;9.64;68.90
80938;BME280;70395;51.382;7.074;2023-11-21T06:49:55;100185.38;;;9.66;68.71
80938;BME280;70395;51.382;7.074;2023-11-21T06:52:21;100186.66;;;9.72;68.69
80938;BME280;70395;51.382;7.074;2023-11-21T06:54:48;100189.03;;;9.75;68.66
80938;BME280;70395;51.382;7.074;2023-11-21T06:57:17;100196.66;;;9.80;68.65
80938;BME280;70395;51.382;7.074;2023-11-21T06:59:44;100201.00;;;9.81;68.83
80938;BME280;70395;51.382;7.074;2023-11-21T07:02:10;100204.25;;;9.85;68.88
80938;BME280;70395;51.382;7.074;2023-11-21T07:04:36;100207.47;;;9.88;68.98
80938;BME280;70395;51.382;7.074;2023-11-21T07:07:03;100215.38;;;9.90;68.68
80938;BME280;70395;51.382;7.074;2023-11-21T07:09:30;100210.03;;;9.90;68.66
80938;BME280;70395;51.382;7.074;2023-11-21T07:11:56;100219.59;;;9.93;68.63
80938;BME280;70395;51.382;7.074;2023-11-21T07:14:22;100224.66;;;9.96;68.60
80938;BME280;70395;51.382;7.074;2023-11-21T07:16:48;100218.03;;;10.00;68.77
80938;BME280;70395;51.382;7.074;2023-11-21T07:19:14;100227.91;;;9.99;68.49
80938;BME280;70395;51.382;7.074;2023-11-21T07:21:41;100227.75;;;10.01;68.78
80938;BME280;70395;51.382;7.074;2023-11-21T07:24:08;100235.78;;;10.01;68.70
80938;BME280;70395;51.382;7.074;2023-11-21T07:26:35;100240.00;;;10.03;68.63
80938;BME280;70395;51.382;7.074;2023-11-21T07:29:01;100237.91;;;10.07;68.43
80938;BME280;70395;51.382;7.074;2023-11-21T07:31:28;100237.75;;;10.09;68.30
80938;BME280;70395;51.382;7.074;2023-11-21T07:33:55;100241.28;;;10.09;68.25
80938;BME280;70395;51.382;7.074;2023-11-21T07:36:24;100241.13;;;10.11;68.26
80938;BME280;70395;51.382;7.074;2023-11-21T07:38:50;100241.81;;;10.13;68.32
80938;BME280;70395;51.382;7.074;2023-11-21T07:41:18;100241.81;;;10.13;68.15
80938;BME280;70395;51.382;7.074;2023-11-21T07:43:45;100241.81;;;10.13;68.35
80938;BME280;70395;51.382;7.074;2023-11-21T07:46:12;100237.47;;;10.12;68.24
80938;BME280;70395;51.382;7.074;2023-11-21T07:48:40;100247.19;;;10.13;68.18
80938;BME280;70395;51.382;7.074;2023-11-21T07:51:06;100248.03;;;10.13;68.25
80938;BME280;70395;51.382;7.074;2023-11-21T07:53:32;100245.34;;;10.13;68.34
80938;BME280;70395;51.382;7.074;2023-11-21T07:56:08;100254.25;;;10.14;68.12
80938;BME280;70395;51.382;7.074;2023-11-21T07:58:36;100252.09;;;10.18;68.26
80938;BME280;70395;51.382;7.074;2023-11-21T08:01:03;100252.84;;;10.20;68.07
80938;BME280;70395;51.382;7.074;2023-11-21T08:03:30;100254.22;;;10.24;67.97
80938;BME280;70395;51.382;7.074;2023-11-21T08:05:57;100263.13;;;10.24;68.05
80938;BME280;70395;51.382;7.074;2023-11-21T08:08:24;100273.84;;;10.24;67.99
80938;BME280;70395;51.382;7.074;2023-11-21T08:10:50;100272.53;;;10.29;67.91
80938;BME280;70395;51.382;7.074;2023-11-21T08:13:26;100279.03;;;10.36;67.93
80938;BME280;70395;51.382;7.074;2023-11-21T08:15:57;100284.19;;;10.47;67.93
80938;BME280;70395;51.382;7.074;2023-11-21T08:18:27;100294.47;;;10.62;67.80
80938;BME280;70395;51.382;7.074;2023-11-21T08:20:54;100298.41;;;10.78;67.47
80938;BME280;70395;51.382;7.074;2023-11-21T08:23:21;100305.78;;;10.94;67.65
80938;BME280;70395;51.382;7.074;2023-11-21T08:25:54;100311.97;;;11.04;67.50
80938;BME280;70395;51.382;7.074;2023-11-21T08:28:21;100314.59;;;11.14;67.44
80938;BME280;70395;51.382;7.074;2023-11-21T08:30:52;100327.28;;;11.22;67.51
80938;BME280;70395;51.382;7.074;2023-11-21T08:33:18;100324.16;;;11.27;67.52
80938;BME280;70395;51.382;7.074;2023-11-21T08:35:44;100337.13;;;11.32;67.42
80938;BME280;70395;51.382;7.074;2023-11-21T08:38:12;100330.44;;;11.36;67.60
80938;BME280;70395;51.382;7.074;2023-11-21T08:40:38;100337.22;;;11.40;67.54
80938;BME280;70395;51.382;7.074;2023-11-21T08:43:04;100332.38;;;11.44;67.57
80938;BME280;70395;51.382;7.074;2023-11-21T08:45:34;100338.44;;;11.46;67.74
80938;BME280;70395;51.382;7.074;2023-11-21T08:48:03;100337.28;;;11.48;67.23
80938;BME280;70395;51.382;7.074;2023-11-21T08:50:29;100336.84;;;11.53;67.39
80938;BME280;70395;51.382;7.074;2023-11-21T08:52:55;100345.28;;;11.58;67.27
80938;BME280;70395;51.382;7.074;2023-11-21T08:55:21;100338.47;;;11.64;67.23
80938;BME280;70395;51.382;7.074;2023-11-21T08:57:48;100341.56;;;11.69;67.25
80938;BME280;70395;51.382;7.074;2023-11-21T09:00:14;100346.31;;;11.76;67.23
80938;BME280;70395;51.382;7.074;2023-11-21T09:02:43;100351.22;;;11.80;67.18
80938;BME280;70395;51.382;7.074;2023-11-21T09:05:13;100350.91;;;11.83;67.21
80938;BME280;70395;51.382;7.074;2023-11-21T09:07:41;100352.00;;;11.91;67.13
80938;BME280;70395;51.382;7.074;2023-11-21T09:10:08;100354.91;;;11.98;67.10
80938;BME280;70395;51.382;7.074;2023-11-21T09:12:36;100366.22;;;12.01;66.93
80938;BME280;70395;51.382;7.074;2023-11-21T09:15:07;100366.91;;;12.03;66.71
80938;BME280;70395;51.382;7.074;2023-11-21T09:17:35;100372.78;;;12.07;66.80
80938;BME280;70395;51.382;7.074;2023-11-21T09:20:02;100372.31;;;12.12;66.75
80938;BME280;70395;51.382;7.074;2023-11-21T09:22:29;100381.97;;;12.14;66.96
80938;BME280;70395;51.382;7.074;2023-11-21T09:24:55;100372.59;;;12.19;66.91
80938;BME280;70395;51.382;7.074;2023-11-21T09:27:23;100381.19;;;12.22;66.54
80938;BME280;70395;51.382;7.074;2023-11-21T09:29:51;100381.56;;;12.27;66.76
80938;BME280;70395;51.382;7.074;2023-11-21T09:32:18;100381.09;;;12.32;66.47
80938;BME280;70395;51.382;7.074;2023-11-21T09:34:44;100385.72;;;12.40;66.59
80938;BME280;70395;51.382;7.074;2023-11-21T09:37:10;100390.63;;;12.45;66.57
80938;BME280;70395;51.382;7.074;2023-11-21T09:39:36;100397.06;;;12.52;66.59
80938;BME280;70395;51.382;7.074;2023-11-21T09:42:12;100397.59;;;12.56;66.47
80938;BME280;70395;51.382;7.074;2023-11-21T09:45:21;100401.66;;;12.60;66.28
80938;BME280;70395;51.382;7.074;2023-11-21T09:47:55;100400.19;;;12.66;66.07
80938;BME280;70395;51.382;7.074;2023-11-21T09:50:24;100408.63;;;12.71;66.16
80938;BME280;70395;51.382;7.074;2023-11-21T09:52:58;100412.69;;;12.75;65.92
80938;BME280;70395;51.382;7.074;2023-11-21T09:55:28;100407.84;;;12.79;65.83
80938;BME280;70395;51.382;7.074;2023-11-21T09:57:58;100406.69;;;12.81;65.79
80938;BME280;70395;51.382;7.074;2023-11-21T10:00:24;100408.22;;;12.84;65.86
80938;BME280;70395;51.382;7.074;2023-11-21T10:02:52;100411.06;;;12.82;65.67
80938;BME280;70395;51.382;7.074;2023-11-21T10:05:18;100421.97;;;12.81;65.28
80938;BME280;70395;51.382;7.074;2023-11-21T10:07:49;100420.44;;;12.78;65.34
80938;BME280;70395;51.382;7.074;2023-11-21T10:10:19;100426.00;;;12.77;65.55
80938;BME280;70395;51.382;7.074;2023-11-21T10:12:50;100422.31;;;12.78;65.48
80938;BME280;70395;51.382;7.074;2023-11-21T10:15:22;100421.28;;;12.79;65.45
80938;BME280;70395;51.382;7.074;2023-11-21T10:17:49;100425.50;;;12.81;65.55
80938;BME280;70395;51.382;7.074;2023-11-21T10:20:16;100429.75;;;12.84;65.20
80938;BME280;70395;51.382;7.074;2023-11-21T10:22:43;100431.44;;;12.85;64.93
80938;BME280;70395;51.382;7.074;2023-11-21T10:25:10;100429.56;;;12.86;65.23
80938;BME280;70395;51.382;7.074;2023-11-21T10:27:37;100428.88;;;12.83;65.24
80938;BME280;70395;51.382;7.074;2023-11-21T10:30:07;100423.38;;;12.85;65.02
80938;BME280;70395;51.382;7.074;2023-11-21T10:32:34;100417.81;;;12.87;65.28
80938;BME280;70395;51.382;7.074;2023-11-21T10:35:00;100414.94;;;12.88;65.36
80938;BME280;70395;51.382;7.074;2023-11-21T10:37:28;100420.72;;;12.93;65.16
80938;BME280;70395;51.382;7.074;2023-11-21T10:40:00;100429.31;;;12.97;65.27
80938;BME280;70395;51.382;7.074;2023-11-21T10:42:26;100436.28;;;13.08;65.21
80938;BME280;70395;51.382;7.074;2023-11-21T10:44:55;100436.16;;;13.18;65.10
80938;BME280;70395;51.382;7.074;2023-11-21T10:47:22;100434.03;;;13.30;64.92
80938;BME280;70395;51.382;7.074;2023-11-21T10:49:49;100444.19;;;13.36;64.79
80938;BME280;70395;51.382;7.074;2023-11-21T10:52:15;100448.06;;;13.42;64.62
80938;BME280;70395;51.382;7.074;2023-11-21T10:54:43;100445.91;;;13.46;64.39
80938;BME280;70395;51.382;7.074;2023-11-21T10:57:10;100449.59;;;13.45;64.49
80938;BME280;70395;51.382;7.074;2023-11-21T10:59:41;100445.06;;;13.45;64.57
80938;BME280;70395;51.382;7.074;2023-11-21T11:02:23;100453.00;;;13.47;64.29
80938;BME280;70395;51.382;7.074;2023-11-21T11:04:59;100455.19;;;13.51;64.15
80938;BME280;70395;51.382;7.074;2023-11-21T11:07:27;100457.09;;;13.59;64.12
80938;BME280;70395;51.382;7.074;2023-11-21T11:09:54;100451.06;;;13.66;63.64
80938;BME280;70395;51.382;7.074;2023-11-21T11:12:21;100455.78;;;13.72;63.91
80938;BME280;70395;51.382;7.074;2023-11-21T11:14:49;100458.84;;;13.77;63.71
80938;BME280;70395;51.382;7.074;2023-11-21T11:17:14;100458.22;;;13.83;63.84
80938;BME280;70395;51.382;7.074;2023-11-21T11:19:42;100464.94;;;13.88;63.63
80938;BME280;70395;51.382;7.074;2023-11-21T11:33:28;100461.41;;;13.79;63.48
80938;BME280;70395;51.382;7.074;2023-11-21T11:38:46;100454.63;;;13.74;63.73
80938;BME280;70395;51.382;7.074;2023-11-21T11:41:12;100465.94;;;13.78;63.43
80938;BME280;70395;51.382;7.074;2023-11-21T11:43:38;100465.59;;;13.81;63.66
80938;BME280;70395;51.382;7.074;2023-11-21T11:46:11;100467.13;;;13.84;63.92
80938;BME280;70395;51.382;7.074;2023-11-21T11:48:40;100462.44;;;13.86;63.81
80938;BME280;70395;51.382;7.074;2023-11-21T11:51:14;100466.63;;;13.89;63.86
80938;BME280;70395;51.382;7.074;2023-11-21T11:53:44;100462.63;;;13.93;63.62
80938;BME280;70395;51.382;7.074;2023-11-21T11:56:29;100463.09;;;13.96;63.38
80938;BME280;70395;51.382;7.074;2023-11-21T11:59:01;100467.88;;;14.03;63.30
80938;BME280;70395;51.382;7.074;2023-11-21T12:01:29;100472.75;;;14.07;63.60
80938;BME280;70395;51.382;7.074;2023-11-21T12:06:46;100473.94;;;14.13;63.20
80938;BME280;70395;51.382;7.074;2023-11-21T12:09:22;100475.13;;;14.11;63.37
80938;BME280;70395;51.382;7.074;2023-11-21T12:11:51;100478.50;;;14.13;63.40
80938;BME280;70395;51.382;7.074;2023-11-21T12:14:18;100482.72;;;14.15;63.13
80938;BME280;70395;51.382;7.074;2023-11-21T12:16:44;100484.72;;;14.13;63.22
80938;BME280;70395;51.382;7.074;2023-11-21T12:19:11;100487.75;;;14.10;63.09
80938;BME280;70395;51.382;7.074;2023-11-21T12:21:38;100489.78;;;14.08;63.06
80938;BME280;70395;51.382;7.074;2023-11-21T12:24:07;100488.09;;;14.07;63.20
80938;BME280;70395;51.382;7.074;2023-11-21T12:26:42;100481.16;;;14.04;62.96
80938;BME280;70395;51.382;7.074;2023-11-21T12:29:09;100485.03;;;14.02;63.15
80938;BME280;70395;51.382;7.074;2023-11-21T12:31:36;100494.28;;;13.99;63.18
80938;BME280;70395;51.382;7.074;2023-11-21T12:34:02;100492.94;;;13.95;63.01
80938;BME280;70395;51.382;7.074;2023-11-21T12:36:28;100493.25;;;13.92;62.90
80938;BME280;70395;51.382;7.074;2023-11-21T12:38:57;100507.91;;;13.89;63.03
80938;BME280;70395;51.382;7.074;2023-11-21T12:41:23;100501.66;;;13.89;63.44
80938;BME280;70395;51.382;7.074;2023-11-21T12:43:49;100506.22;;;13.88;63.37
80938;BME280;70395;51.382;7.074;2023-11-21T12:46:15;100511.78;;;13.87;63.48
80938;BME280;70395;51.382;7.074;2023-11-21T12:48:44;100505.69;;;13.84;63.37
80938;BME280;70395;51.382;7.074;2023-11-21T12:51:12;100513.44;;;13.79;63.43
80938;BME280;70395;51.382;7.074;2023-11-21T12:53:40;100514.75;;;13.75;63.10
80938;BME280;70395;51.382;7.074;2023-11-21T12:56:15;100514.72;;;13.67;63.12
80938;BME280;70395;51.382;7.074;2023-11-21T12:58:46;100516.91;;;13.63;63.58
80938;BME280;70395;51.382;7.074;2023-11-21T13:01:17;100522.09;;;13.56;63.40
80938;BME280;70395;51.382;7.074;2023-11-21T13:03:50;100531.63;;;13.50;63.06
80938;BME280;70395;51.382;7.074;2023-11-21T13:06:17;100531.25;;;13.45;63.47
80938;BME280;70395;51.382;7.074;2023-11-21T13:08:44;100533.56;;;13.40;63.55
80938;BME280;70395;51.382;7.074;2023-11-21T13:11:11;100540.47;;;13.34;63.60
80938;BME280;70395;51.382;7.074;2023-11-21T13:13:41;100548.28;;;13.27;63.84
80938;BME280;70395;51.382;7.074;2023-11-21T13:16:11;100538.00;;;13.23;63.89